Time,TemperatureF,DewpointF,PressureIn,WindDirection,WindDirectionDegrees,WindSpeedMPH,WindSpeedGustMPH,Humidity,HourlyPrecipIn,Conditions,Clouds,dailyrainin,SoftwareType,DateUTC
2013-11-22 00:01:00,50.4,48.4,29.96,NNW,337,0.0,0.0,93,0.00,,,0.00,WUHU216DAVISVP2,2013-11-22 08:01:00,
2013-11-22 00:06:00,50.3,48.3,29.96,NNW,337,0.0,0.0,93,0.00,,,0.00,WUHU216DAVISVP2,2013-11-22 08:06:00,
2013-11-22 00:11:00,50.3,48.3,29.96,NNW,337,0.0,0.0,93,0.00,,,0.00,WUHU216DAVISVP2,2013-11-22 08:11:00,
2013-11-22 00:16:00,50.2,48.3,29.96,NNW,337,0.0,0.0,93,0.00,,,0.00,WUHU216DAVISVP2,2013-11-22 08:16:00,
2013-11-22 00:21:00,50.1,48.1,29.96,NNW,337,0.0,0.0,93,0.00,,,0.00,WUHU216DAVISVP2,2013-11-22 08:21:00,
2013-11-22 00:26:00,50.0,48.0,29.96,NNW,337,0.0,0.0,93,0.00,,,0.00,WUHU216DAVISVP2,2013-11-22 08:26:00,
2013-11-22 00:31:00,50.0,48.0,29.96,NNW,337,0.0,0.0,93,0.00,,,0.00,WUHU216DAVISVP2,2013-11-22 08:31:00,
2013-11-22 00:36:00,49.9,47.9,29.96,NNW,337,0.0,0.0,93,0.00,,,0.00,WUHU216DAVISVP2,2013-11-22 08:36:00,
2013-11-22 00:41:00,49.9,48.0,29.96,NNW,337,0.0,0.0,93,0.00,,,0.00,WUHU216DAVISVP2,2013-11-22 08:41:00,
2013-11-22 00:46:00,49.9,48.2,29.96,NNW,337,0.0,0.0,94,0.00,,,0.00,WUHU216DAVISVP2,2013-11-22 08:46:00,
2013-11-22 00:51:00,49.9,48.2,29.96,NNW,337,0.0,1.0,94,0.00,,,0.00,WUHU216DAVISVP2,2013-11-22 08:51:00,
2013-11-22 00:56:00,50.0,48.3,29.95,NNW,337,0.0,2.0,94,0.00,,,0.00,WUHU216DAVISVP2,2013-11-22 08:56:00,
2013-11-22 01:01:00,49.9,48.2,29.96,NNW,337,0.0,2.0,94,0.00,,,0.00,WUHU216DAVISVP2,2013-11-22 09:01:00,
2013-11-22 01:06:00,49.9,48.2,29.96,NNW,337,0.0,0.0,94,0.00,,,0.00,WUHU216DAVISVP2,2013-11-22 09:06:00,
2013-11-22 01:11:00,49.9,48.2,29.96,NNW,337,0.0,0.0,94,0.00,,,0.00,WUHU216DAVISVP2,2013-11-22 09:11:00,
2013-11-22 01:16:00,49.9,48.2,29.96,NNW,337,0.0,0.0,94,0.00,,,0.00,WUHU216DAVISVP2,2013-11-22 09:16:00,
2013-11-22 01:21:00,49.9,48.2,29.96,NNW,337,0.0,0.0,94,0.00,,,0.00,WUHU216DAVISVP2,2013-11-22 09:21:00,
2013-11-22 01:26:00,49.9,48.2,29.96,NNW,337,0.0,0.0,94,0.00,,,0.00,WUHU216DAVISVP2,2013-11-22 09:26:00,
2013-11-22 01:31:00,49.8,48.1,29.96,NNW,337,0.0,0.0,94,0.00,,,0.00,WUHU216DAVISVP2,2013-11-22 09:31:00,
2013-11-22 01:36:00,49.8,48.1,29.96,NNW,337,0.0,0.0,94,0.00,,,0.00,WUHU216DAVISVP2,2013-11-22 09:36:00,
2013-11-22 01:41:00,49.8,48.1,29.96,NNW,337,0.0,0.0,94,0.00,,,0.00,WUHU216DAVISVP2,2013-11-22 09:41:00,
2013-11-22 01:46:00,49.8,48.1,29.96,NNW,337,0.0,2.0,94,0.00,,,0.00,WUHU216DAVISVP2,2013-11-22 09:46:00,
2013-11-22 01:51:00,49.7,48.0,29.95,NNW,337,1.0,3.0,94,0.00,,,0.00,WUHU216DAVISVP2,2013-11-22 09:51:00,
2013-11-22 01:56:00,49.7,48.0,29.95,NNW,337,2.0,4.0,94,0.00,,,0.00,WUHU216DAVISVP2,2013-11-22 09:56:00,
2013-11-22 02:01:00,49.6,47.9,29.95,NNW,337,0.0,5.0,94,0.00,,,0.00,WUHU216DAVISVP2,2013-11-22 10:01:00,
2013-11-22 02:06:00,49.5,47.8,29.96,NNW,337,1.0,5.0,94,0.00,,,0.00,WUHU216DAVISVP2,2013-11-22 10:06:00,
2013-11-22 02:11:00,49.5,47.8,29.96,NNW,337,0.0,3.0,94,0.00,,,0.00,WUHU216DAVISVP2,2013-11-22 10:11:00,
2013-11-22 02:16:00,49.4,47.7,29.96,NNW,337,0.0,3.0,94,0.00,,,0.00,WUHU216DAVISVP2,2013-11-22 10:16:00,
2013-11-22 02:21:00,49.3,47.6,29.96,NNW,337,0.0,0.0,94,0.00,,,0.00,WUHU216DAVISVP2,2013-11-22 10:21:00,
2013-11-22 02:26:00,49.3,47.6,29.96,NNW,337,0.0,0.0,94,0.00,,,0.00,WUHU216DAVISVP2,2013-11-22 10:26:00,
2013-11-22 02:31:00,49.2,47.5,29.96,NNW,337,0.0,0.0,94,0.00,,,0.00,WUHU216DAVISVP2,2013-11-22 10:31:00,
2013-11-22 02:36:00,49.3,47.6,29.97,NNW,337,0.0,0.0,94,0.00,,,0.00,WUHU216DAVISVP2,2013-11-22 10:36:00,
2013-11-22 02:41:00,49.2,47.5,29.97,NNW,337,0.0,0.0,94,0.00,,,0.00,WUHU216DAVISVP2,2013-11-22 10:41:00,
2013-11-22 02:46:00,49.3,47.9,29.97,NNW,337,0.0,0.0,95,0.00,,,0.00,WUHU216DAVISVP2,2013-11-22 10:46:00,
2013-11-22 02:51:00,49.3,47.9,29.97,NNW,337,0.0,0.0,95,0.00,,,0.00,WUHU216DAVISVP2,2013-11-22 10:51:00,
2013-11-22 02:56:00,49.3,47.9,29.97,NNW,337,0.0,0.0,95,0.00,,,0.00,WUHU216DAVISVP2,2013-11-22 10:56:00,
2013-11-22 03:01:00,49.3,47.9,29.97,NNW,337,0.0,0.0,95,0.00,,,0.00,WUHU216DAVISVP2,2013-11-22 11:01:00,
2013-11-22 03:06:00,49.2,47.5,29.96,NNW,337,0.0,0.0,94,0.00,,,0.00,WUHU216DAVISVP2,2013-11-22 11:06:00,
2013-11-22 03:11:00,49.2,47.5,29.96,NNW,337,0.0,0.0,94,0.00,,,0.00,WUHU216DAVISVP2,2013-11-22 11:11:00,
2013-11-22 03:16:00,49.1,47.4,29.96,NNW,337,0.0,0.0,94,0.00,,,0.00,WUHU216DAVISVP2,2013-11-22 11:16:00,
2013-11-22 03:21:00,49.1,47.4,29.96,NNW,337,0.0,2.0,94,0.00,,,0.00,WUHU216DAVISVP2,2013-11-22 11:21:00,
2013-11-22 03:26:00,49.0,47.3,29.96,NNW,337,0.0,2.0,94,0.00,,,0.00,WUHU216DAVISVP2,2013-11-22 11:26:00,
2013-11-22 03:31:00,49.1,47.7,29.96,NNW,337,0.0,3.0,95,0.00,,,0.00,WUHU216DAVISVP2,2013-11-22 11:31:00,
2013-11-22 03:36:00,49.1,47.7,29.96,NNW,337,1.0,4.0,95,0.00,,,0.00,WUHU216DAVISVP2,2013-11-22 11:36:00,
2013-11-22 03:41:00,49.0,47.6,29.95,NNW,337,3.0,4.0,95,0.00,,,0.00,WUHU216DAVISVP2,2013-11-22 11:41:00,
2013-11-22 03:46:00,48.9,47.5,29.96,NNW,337,0.0,4.0,95,0.00,,,0.00,WUHU216DAVISVP2,2013-11-22 11:46:00,
2013-11-22 03:51:00,48.7,47.0,29.96,NNW,337,0.0,4.0,94,0.00,,,0.00,WUHU216DAVISVP2,2013-11-22 11:51:00,
2013-11-22 03:56:00,48.6,46.9,29.96,NNW,337,0.0,4.0,94,0.00,,,0.00,WUHU216DAVISVP2,2013-11-22 11:56:00,
2013-11-22 04:01:00,48.5,46.8,29.96,NNW,337,2.0,3.0,94,0.00,,,0.00,WUHU216DAVISVP2,2013-11-22 12:01:00,
2013-11-22 04:06:00,48.4,46.4,29.96,NW,314,4.0,5.0,93,0.00,,,0.00,WUHU216DAVISVP2,2013-11-22 12:06:00,
2013-11-22 04:11:00,48.3,46.3,29.96,NW,314,0.0,5.0,93,0.00,,,0.00,WUHU216DAVISVP2,2013-11-22 12:11:00,
2013-11-22 04:16:00,48.2,45.9,29.96,NW,314,0.0,6.0,92,0.00,,,0.00,WUHU216DAVISVP2,2013-11-22 12:16:00,
2013-11-22 04:21:00,48.2,45.9,29.96,NW,314,4.0,6.0,92,0.00,,,0.00,WUHU216DAVISVP2,2013-11-22 12:21:00,
2013-11-22 04:26:00,48.0,45.5,29.96,NW,314,3.0,5.0,91,0.00,,,0.00,WUHU216DAVISVP2,2013-11-22 12:26:00,
2013-11-22 04:31:00,47.9,45.1,29.96,NW,314,2.0,5.0,90,0.00,,,0.00,WUHU216DAVISVP2,2013-11-22 12:31:00,
2013-11-22 04:36:00,47.8,44.7,29.96,NW,314,0.0,5.0,89,0.00,,,0.00,WUHU216DAVISVP2,2013-11-22 12:36:00,
2013-11-22 04:41:00,47.7,44.3,29.95,NW,314,0.0,5.0,88,0.00,,,0.00,WUHU216DAVISVP2,2013-11-22 12:41:00,
2013-11-22 04:46:00,47.6,43.9,29.95,NW,314,3.0,5.0,87,0.00,,,0.00,WUHU216DAVISVP2,2013-11-22 12:46:00,
2013-11-22 04:51:00,47.4,43.4,29.95,NW,308,0.0,6.0,86,0.00,,,0.00,WUHU216DAVISVP2,2013-11-22 12:51:00,
2013-11-22 04:56:00,47.4,43.4,29.96,NW,308,3.0,6.0,86,0.00,,,0.00,WUHU216DAVISVP2,2013-11-22 12:56:00,
2013-11-22 05:01:00,47.3,43.0,29.96,NW,307,4.0,6.0,85,0.00,,,0.00,WUHU216DAVISVP2,2013-11-22 13:01:00,
2013-11-22 05:06:00,47.1,42.8,29.96,NW,307,0.0,6.0,85,0.00,,,0.00,WUHU216DAVISVP2,2013-11-22 13:06:00,
2013-11-22 05:11:00,46.9,42.6,29.96,NW,306,3.0,5.0,85,0.00,,,0.00,WUHU216DAVISVP2,2013-11-22 13:11:00,
2013-11-22 05:16:00,46.8,42.5,29.96,NW,306,2.0,5.0,85,0.00,,,0.00,WUHU216DAVISVP2,2013-11-22 13:16:00,
2013-11-22 05:21:00,46.7,42.4,29.96,NW,306,0.0,4.0,85,0.00,,,0.00,WUHU216DAVISVP2,2013-11-22 13:21:00,
2013-11-22 05:26:00,46.5,42.2,29.97,NW,306,0.0,4.0,85,0.00,,,0.00,WUHU216DAVISVP2,2013-11-22 13:26:00,
2013-11-22 05:31:00,46.3,42.0,29.97,NW,306,0.0,4.0,85,0.00,,,0.00,WUHU216DAVISVP2,2013-11-22 13:31:00,
2013-11-22 05:36:00,46.2,41.9,29.97,NW,306,4.0,5.0,85,0.00,,,0.00,WUHU216DAVISVP2,2013-11-22 13:36:00,
2013-11-22 05:41:00,46.1,41.8,29.97,NW,308,0.0,6.0,85,0.00,,,0.00,WUHU216DAVISVP2,2013-11-22 13:41:00,
2013-11-22 05:46:00,45.9,41.6,29.97,NW,304,3.0,6.0,85,0.00,,,0.00,WUHU216DAVISVP2,2013-11-22 13:46:00,
2013-11-22 05:51:00,45.8,41.8,29.97,WNW,300,0.0,9.0,86,0.00,,,0.00,WUHU216DAVISVP2,2013-11-22 13:51:00,
2013-11-22 05:56:00,45.7,41.7,29.97,WNW,301,0.0,9.0,86,0.00,,,0.00,WUHU216DAVISVP2,2013-11-22 13:56:00,
2013-11-22 06:01:00,45.6,41.6,29.97,WNW,300,0.0,6.0,86,0.00,,,0.00,WUHU216DAVISVP2,2013-11-22 14:01:00,
2013-11-22 06:06:00,45.5,41.5,29.98,WNW,300,3.0,5.0,86,0.00,,,0.00,WUHU216DAVISVP2,2013-11-22 14:06:00,
2013-11-22 06:11:00,45.4,41.4,29.98,WNW,300,0.0,4.0,86,0.00,,,0.00,WUHU216DAVISVP2,2013-11-22 14:11:00,
2013-11-22 06:16:00,45.4,41.4,29.98,WNW,300,0.0,4.0,86,0.00,,,0.00,WUHU216DAVISVP2,2013-11-22 14:16:00,
2013-11-22 06:21:00,45.3,41.3,29.98,WNW,300,1.0,3.0,86,0.00,,,0.00,WUHU216DAVISVP2,2013-11-22 14:21:00,
2013-11-22 06:26:00,45.3,41.3,29.98,WNW,300,0.0,3.0,86,0.00,,,0.00,WUHU216DAVISVP2,2013-11-22 14:26:00,
2013-11-22 06:31:00,45.2,41.2,29.99,WNW,300,2.0,3.0,86,0.00,,,0.00,WUHU216DAVISVP2,2013-11-22 14:31:00,
2013-11-22 06:36:00,45.2,41.2,29.99,WNW,300,0.0,3.0,86,0.00,,,0.00,WUHU216DAVISVP2,2013-11-22 14:36:00,
2013-11-22 06:41:00,45.2,41.2,29.99,WNW,300,0.0,2.0,86,0.00,,,0.00,WUHU216DAVISVP2,2013-11-22 14:41:00,
2013-11-22 06:46:00,45.2,41.2,30.00,WNW,300,0.0,0.0,86,0.00,,,0.00,WUHU216DAVISVP2,2013-11-22 14:46:00,
2013-11-22 06:51:00,45.1,41.4,30.00,WNW,300,0.0,0.0,87,0.00,,,0.00,WUHU216DAVISVP2,2013-11-22 14:51:00,
2013-11-22 06:56:00,45.1,41.4,30.00,WNW,300,0.0,0.0,87,0.00,,,0.00,WUHU216DAVISVP2,2013-11-22 14:56:00,
2013-11-22 07:01:00,45.0,41.3,29.99,WNW,300,1.0,1.0,87,0.00,,,0.00,WUHU216DAVISVP2,2013-11-22 15:01:00,
2013-11-22 07:06:00,45.0,41.3,30.00,WNW,300,1.0,2.0,87,0.00,,,0.00,WUHU216DAVISVP2,2013-11-22 15:06:00,
2013-11-22 07:11:00,44.9,41.2,30.00,WNW,300,0.0,2.0,87,0.00,,,0.00,WUHU216DAVISVP2,2013-11-22 15:11:00,
2013-11-22 07:16:00,44.9,41.2,30.00,WNW,300,0.0,2.0,87,0.00,,,0.00,WUHU216DAVISVP2,2013-11-22 15:16:00,
2013-11-22 07:21:00,44.9,41.2,30.00,WNW,300,0.0,1.0,87,0.00,,,0.00,WUHU216DAVISVP2,2013-11-22 15:21:00,
2013-11-22 07:26:00,44.8,41.1,30.00,WNW,300,2.0,2.0,87,0.00,,,0.00,WUHU216DAVISVP2,2013-11-22 15:26:00,
2013-11-22 07:31:00,44.8,41.1,30.00,WNW,300,0.0,2.0,87,0.00,,,0.00,WUHU216DAVISVP2,2013-11-22 15:31:00,
2013-11-22 07:36:00,44.8,40.8,30.00,WNW,300,0.0,2.0,86,0.00,,,0.00,WUHU216DAVISVP2,2013-11-22 15:36:00,
2013-11-22 07:41:00,44.9,40.9,30.00,WNW,300,0.0,3.0,86,0.00,,,0.00,WUHU216DAVISVP2,2013-11-22 15:41:00,
2013-11-22 07:46:00,45.0,40.7,30.01,WNW,300,0.0,3.0,85,0.00,,,0.00,WUHU216DAVISVP2,2013-11-22 15:46:00,
2013-11-22 07:51:00,45.1,40.8,30.01,WNW,300,0.0,4.0,85,0.00,,,0.00,WUHU216DAVISVP2,2013-11-22 15:51:00,
2013-11-22 07:56:00,45.1,40.8,30.01,WNW,300,0.0,4.0,85,0.00,,,0.00,WUHU216DAVISVP2,2013-11-22 15:56:00,
2013-11-22 08:01:00,45.2,40.6,30.01,WNW,300,0.0,2.0,84,0.00,,,0.00,WUHU216DAVISVP2,2013-11-22 16:01:00,
2013-11-22 08:06:00,45.2,40.6,30.01,WNW,300,2.0,2.0,84,0.00,,,0.00,WUHU216DAVISVP2,2013-11-22 16:06:00,
2013-11-22 08:11:00,45.3,40.7,30.01,WNW,300,0.0,4.0,84,0.00,,,0.00,WUHU216DAVISVP2,2013-11-22 16:11:00,
2013-11-22 08:16:00,45.3,40.7,30.01,WNW,300,0.0,4.0,84,0.00,,,0.00,WUHU216DAVISVP2,2013-11-22 16:16:00,
2013-11-22 08:21:00,45.4,40.8,30.01,WNW,300,2.0,4.0,84,0.00,,,0.00,WUHU216DAVISVP2,2013-11-22 16:21:00,
2013-11-22 08:26:00,45.4,40.5,30.02,WNW,300,0.0,4.0,83,0.00,,,0.00,WUHU216DAVISVP2,2013-11-22 16:26:00,
2013-11-22 08:31:00,45.4,40.5,30.02,WNW,300,0.0,4.0,83,0.00,,,0.00,WUHU216DAVISVP2,2013-11-22 16:31:00,
2013-11-22 08:36:00,45.6,40.7,30.02,WNW,300,0.0,4.0,83,0.00,,,0.00,WUHU216DAVISVP2,2013-11-22 16:36:00,
2013-11-22 08:41:00,45.7,40.8,30.02,WNW,300,0.0,4.0,83,0.00,,,0.00,WUHU216DAVISVP2,2013-11-22 16:41:00,
2013-11-22 08:46:00,45.8,40.6,30.02,WNW,300,3.0,5.0,82,0.00,,,0.00,WUHU216DAVISVP2,2013-11-22 16:46:00,
2013-11-22 08:51:00,45.9,40.7,30.02,WNW,300,0.0,5.0,82,0.00,,,0.00,WUHU216DAVISVP2,2013-11-22 16:51:00,
2013-11-22 08:56:00,46.0,41.1,30.02,WNW,300,3.0,5.0,83,0.00,,,0.00,WUHU216DAVISVP2,2013-11-22 16:56:00,
2013-11-22 09:01:00,46.1,41.2,30.02,WNW,300,0.0,3.0,83,0.00,,,0.00,WUHU216DAVISVP2,2013-11-22 17:01:00,
2013-11-22 09:06:00,46.2,41.0,30.02,WNW,300,0.0,4.0,82,0.00,,,0.00,WUHU216DAVISVP2,2013-11-22 17:06:00,
2013-11-22 09:11:00,46.3,41.1,30.02,WNW,300,0.0,4.0,82,0.00,,,0.00,WUHU216DAVISVP2,2013-11-22 17:11:00,
2013-11-22 09:16:00,46.4,41.2,30.02,WNW,300,0.0,4.0,82,0.00,,,0.00,WUHU216DAVISVP2,2013-11-22 17:16:00,
2013-11-22 09:21:00,46.5,41.3,30.02,WNW,300,0.0,3.0,82,0.00,,,0.00,WUHU216DAVISVP2,2013-11-22 17:21:00,
2013-11-22 09:26:00,47.0,41.5,30.02,WNW,300,1.0,3.0,81,0.00,,,0.00,WUHU216DAVISVP2,2013-11-22 17:26:00,
2013-11-22 09:31:00,47.5,42.0,30.02,WNW,300,2.0,3.0,81,0.00,,,0.00,WUHU216DAVISVP2,2013-11-22 17:31:00,
2013-11-22 09:36:00,48.4,41.9,30.02,WNW,300,0.0,5.0,78,0.00,,,0.00,WUHU216DAVISVP2,2013-11-22 17:36:00,
2013-11-22 09:41:00,48.6,42.1,30.03,WNW,300,2.0,5.0,78,0.00,,,0.00,WUHU216DAVISVP2,2013-11-22 17:41:00,
2013-11-22 09:46:00,48.6,42.1,30.02,WNW,301,5.0,6.0,78,0.00,,,0.00,WUHU216DAVISVP2,2013-11-22 17:46:00,
2013-11-22 09:51:00,48.7,42.2,30.02,WNW,302,1.0,6.0,78,0.00,,,0.00,WUHU216DAVISVP2,2013-11-22 17:51:00,
2013-11-22 09:56:00,48.8,42.3,30.03,WNW,302,0.0,6.0,78,0.00,,,0.00,WUHU216DAVISVP2,2013-11-22 17:56:00,
2013-11-22 10:01:00,49.3,42.8,30.03,NW,309,4.0,5.0,78,0.00,,,0.00,WUHU216DAVISVP2,2013-11-22 18:01:00,
2013-11-22 10:06:00,49.3,42.5,30.03,NW,321,2.0,5.0,77,0.00,,,0.00,WUHU216DAVISVP2,2013-11-22 18:06:00,
2013-11-22 10:11:00,49.1,42.3,30.03,NW,321,0.0,5.0,77,0.00,,,0.00,WUHU216DAVISVP2,2013-11-22 18:11:00,
2013-11-22 10:16:00,49.2,42.4,30.03,NW,321,0.0,4.0,77,0.00,,,0.00,WUHU216DAVISVP2,2013-11-22 18:16:00,
2013-11-22 10:21:00,49.3,42.5,30.03,NW,321,2.0,4.0,77,0.00,,,0.00,WUHU216DAVISVP2,2013-11-22 18:21:00,
2013-11-22 10:26:00,49.2,42.4,30.03,NW,321,0.0,4.0,77,0.00,,,0.00,WUHU216DAVISVP2,2013-11-22 18:26:00,
2013-11-22 10:31:00,49.3,42.5,30.03,NW,321,0.0,4.0,77,0.00,,,0.00,WUHU216DAVISVP2,2013-11-22 18:31:00,
2013-11-22 10:36:00,49.9,43.0,30.02,NW,321,0.0,4.0,77,0.00,,,0.00,WUHU216DAVISVP2,2013-11-22 18:36:00,
2013-11-22 10:41:00,50.4,43.2,30.02,NW,321,0.0,4.0,76,0.00,,,0.00,WUHU216DAVISVP2,2013-11-22 18:41:00,
2013-11-22 10:46:00,50.8,43.6,30.02,NW,321,0.0,4.0,76,0.00,,,0.00,WUHU216DAVISVP2,2013-11-22 18:46:00,
2013-11-22 10:51:00,50.8,42.9,30.02,NW,321,4.0,4.0,74,0.00,,,0.00,WUHU216DAVISVP2,2013-11-22 18:51:00,
2013-11-22 10:56:00,51.2,43.6,30.02,NW,321,0.0,4.0,75,0.00,,,0.00,WUHU216DAVISVP2,2013-11-22 18:56:00,
2013-11-22 11:01:00,51.5,43.6,30.02,NW,321,0.0,4.0,74,0.00,,,0.00,WUHU216DAVISVP2,2013-11-22 19:01:00,
2013-11-22 11:06:00,51.4,43.5,30.02,NW,321,0.0,0.0,74,0.00,,,0.00,WUHU216DAVISVP2,2013-11-22 19:06:00,
2013-11-22 11:11:00,51.5,43.6,30.02,NW,321,0.0,0.0,74,0.00,,,0.00,WUHU216DAVISVP2,2013-11-22 19:11:00,
2013-11-22 11:16:00,51.7,44.1,30.01,NW,321,0.0,2.0,75,0.00,,,0.00,WUHU216DAVISVP2,2013-11-22 19:16:00,
2013-11-22 11:21:00,51.8,43.9,30.01,NW,321,2.0,3.0,74,0.00,,,0.00,WUHU216DAVISVP2,2013-11-22 19:21:00,
2013-11-22 11:26:00,51.5,43.6,30.01,NW,321,0.0,3.0,74,0.00,,,0.00,WUHU216DAVISVP2,2013-11-22 19:26:00,
2013-11-22 11:31:00,52.1,43.8,30.01,NW,321,0.0,3.0,73,0.00,,,0.00,WUHU216DAVISVP2,2013-11-22 19:31:00,
2013-11-22 11:36:00,52.4,44.1,30.00,NW,321,0.0,0.0,73,0.00,,,0.00,WUHU216DAVISVP2,2013-11-22 19:36:00,
2013-11-22 11:41:00,52.2,43.2,30.00,NW,321,0.0,0.0,71,0.00,,,0.00,WUHU216DAVISVP2,2013-11-22 19:41:00,
2013-11-22 11:46:00,52.3,43.6,30.00,NW,321,3.0,3.0,72,0.00,,,0.00,WUHU216DAVISVP2,2013-11-22 19:46:00,
2013-11-22 11:51:00,52.8,44.1,30.00,NW,321,0.0,4.0,72,0.00,,,0.00,WUHU216DAVISVP2,2013-11-22 19:51:00,
2013-11-22 11:56:00,53.6,44.5,30.00,NW,321,0.0,4.0,71,0.00,,,0.00,WUHU216DAVISVP2,2013-11-22 19:56:00,
2013-11-22 12:01:00,53.4,43.6,29.99,NW,321,0.0,2.0,69,0.00,,,0.00,WUHU216DAVISVP2,2013-11-22 20:01:00,
2013-11-22 12:06:00,52.9,43.5,29.99,NW,321,0.0,0.0,70,0.00,,,0.00,WUHU216DAVISVP2,2013-11-22 20:06:00,
2013-11-22 12:11:00,53.0,44.0,29.99,NW,321,0.0,0.0,71,0.00,,,0.00,WUHU216DAVISVP2,2013-11-22 20:11:00,
2013-11-22 12:16:00,53.0,43.2,29.99,NW,321,0.0,0.0,69,0.00,,,0.00,WUHU216DAVISVP2,2013-11-22 20:16:00,
2013-11-22 12:21:00,53.2,43.8,29.99,NW,321,0.0,2.0,70,0.00,,,0.00,WUHU216DAVISVP2,2013-11-22 20:21:00,
2013-11-22 12:26:00,53.3,43.5,29.99,NW,321,0.0,2.0,69,0.00,,,0.00,WUHU216DAVISVP2,2013-11-22 20:26:00,
2013-11-22 12:31:00,53.6,44.2,29.99,NW,321,0.0,0.0,70,0.00,,,0.00,WUHU216DAVISVP2,2013-11-22 20:31:00,
2013-11-22 12:36:00,53.8,44.0,29.99,NW,321,0.0,0.0,69,0.00,,,0.00,WUHU216DAVISVP2,2013-11-22 20:36:00,
2013-11-22 12:41:00,54.2,44.4,29.99,NW,321,0.0,3.0,69,0.00,,,0.00,WUHU216DAVISVP2,2013-11-22 20:41:00,
2013-11-22 12:46:00,53.8,43.6,29.98,NW,321,0.0,3.0,68,0.00,,,0.00,WUHU216DAVISVP2,2013-11-22 20:46:00,
2013-11-22 12:51:00,53.7,43.9,29.98,NW,321,0.0,0.0,69,0.00,,,0.00,WUHU216DAVISVP2,2013-11-22 20:51:00,
2013-11-22 12:56:00,53.7,43.5,29.98,NW,321,0.0,0.0,68,0.00,,,0.00,WUHU216DAVISVP2,2013-11-22 20:56:00,
2013-11-22 13:01:00,53.9,43.3,29.98,NW,321,0.0,0.0,67,0.00,,,0.00,WUHU216DAVISVP2,2013-11-22 21:01:00,
2013-11-22 13:06:00,54.3,43.7,29.98,NW,321,0.0,0.0,67,0.00,,,0.00,WUHU216DAVISVP2,2013-11-22 21:06:00,
2013-11-22 13:11:00,54.4,43.0,29.98,NW,321,0.0,0.0,65,0.00,,,0.00,WUHU216DAVISVP2,2013-11-22 21:11:00,
2013-11-22 13:16:00,54.5,43.5,29.98,NW,321,0.0,0.0,66,0.00,,,0.00,WUHU216DAVISVP2,2013-11-22 21:16:00,
2013-11-22 13:21:00,54.6,42.8,29.98,NW,321,0.0,0.0,64,0.00,,,0.00,WUHU216DAVISVP2,2013-11-22 21:21:00,
2013-11-22 13:26:00,54.4,43.4,29.98,NW,321,0.0,1.0,66,0.00,,,0.00,WUHU216DAVISVP2,2013-11-22 21:26:00,
2013-11-22 13:31:00,54.5,43.1,29.98,NW,321,0.0,1.0,65,0.00,,,0.00,WUHU216DAVISVP2,2013-11-22 21:31:00,
2013-11-22 13:36:00,54.4,43.0,29.97,NW,321,0.0,0.0,65,0.00,,,0.00,WUHU216DAVISVP2,2013-11-22 21:36:00,
2013-11-22 13:41:00,54.3,42.1,29.96,NW,321,0.0,0.0,63,0.00,,,0.00,WUHU216DAVISVP2,2013-11-22 21:41:00,
2013-11-22 13:46:00,54.4,42.6,29.97,NW,321,0.0,0.0,64,0.00,,,0.00,WUHU216DAVISVP2,2013-11-22 21:46:00,
2013-11-22 13:51:00,54.8,43.4,29.96,NW,321,0.0,0.0,65,0.00,,,0.00,WUHU216DAVISVP2,2013-11-22 21:51:00,
2013-11-22 13:56:00,55.5,43.6,29.97,NW,321,0.0,0.0,64,0.00,,,0.00,WUHU216DAVISVP2,2013-11-22 21:56:00,
2013-11-22 14:01:00,56.1,43.0,29.97,East,99,0.0,4.0,61,0.00,,,0.00,WUHU216DAVISVP2,2013-11-22 22:01:00,
2013-11-22 14:06:00,56.1,43.8,29.97,East,99,0.0,4.0,63,0.00,,,0.00,WUHU216DAVISVP2,2013-11-22 22:06:00,
2013-11-22 14:11:00,56.0,43.7,29.97,East,99,0.0,1.0,63,0.00,,,0.00,WUHU216DAVISVP2,2013-11-22 22:11:00,
2013-11-22 14:16:00,56.0,43.7,29.97,East,99,1.0,1.0,63,0.00,,,0.00,WUHU216DAVISVP2,2013-11-22 22:16:00,
2013-11-22 14:21:00,56.4,44.1,29.97,East,98,0.0,4.0,63,0.00,,,0.00,WUHU216DAVISVP2,2013-11-22 22:21:00,
2013-11-22 14:26:00,56.0,44.1,29.96,NNE,26,0.0,4.0,64,0.00,,,0.00,WUHU216DAVISVP2,2013-11-22 22:26:00,
2013-11-22 14:31:00,56.2,43.5,29.96,NNE,26,0.0,4.0,62,0.00,,,0.00,WUHU216DAVISVP2,2013-11-22 22:31:00,
2013-11-22 14:36:00,55.8,43.5,29.96,NNE,26,1.0,3.0,63,0.00,,,0.00,WUHU216DAVISVP2,2013-11-22 22:36:00,
2013-11-22 14:41:00,55.9,44.0,29.96,NNE,26,2.0,3.0,64,0.00,,,0.00,WUHU216DAVISVP2,2013-11-22 22:41:00,
2013-11-22 14:46:00,55.9,44.0,29.96,NNE,26,2.0,3.0,64,0.00,,,0.00,WUHU216DAVISVP2,2013-11-22 22:46:00,
2013-11-22 14:51:00,55.9,44.0,29.96,East,80,3.0,5.0,64,0.00,,,0.00,WUHU216DAVISVP2,2013-11-22 22:51:00,
2013-11-22 14:56:00,55.9,44.0,29.96,East,101,4.0,6.0,64,0.00,,,0.00,WUHU216DAVISVP2,2013-11-22 22:56:00,
2013-11-22 15:01:00,55.9,44.0,29.97,East,84,0.0,6.0,64,0.00,,,0.00,WUHU216DAVISVP2,2013-11-22 23:01:00,
2013-11-22 15:06:00,55.7,44.2,29.97,ESE,102,1.0,6.0,65,0.00,,,0.00,WUHU216DAVISVP2,2013-11-22 23:06:00,
2013-11-22 15:11:00,55.5,44.1,29.96,ESE,122,7.0,7.0,65,0.00,,,0.00,WUHU216DAVISVP2,2013-11-22 23:11:00,
2013-11-22 15:16:00,55.4,44.0,29.96,SE,128,2.0,7.0,65,0.00,,,0.00,WUHU216DAVISVP2,2013-11-22 23:16:00,
2013-11-22 15:21:00,55.3,44.3,29.96,SE,128,0.0,4.0,66,0.00,,,0.00,WUHU216DAVISVP2,2013-11-22 23:21:00,
2013-11-22 15:26:00,55.3,44.3,29.96,SE,128,0.0,5.0,66,0.00,,,0.00,WUHU216DAVISVP2,2013-11-22 23:26:00,
2013-11-22 15:31:00,55.2,44.2,29.96,SE,127,1.0,5.0,66,0.00,,,0.00,WUHU216DAVISVP2,2013-11-22 23:31:00,
2013-11-22 15:36:00,55.2,44.6,29.97,SE,126,1.0,5.0,67,0.00,,,0.00,WUHU216DAVISVP2,2013-11-22 23:36:00,
2013-11-22 15:41:00,55.2,44.6,29.96,SE,127,5.0,6.0,67,0.00,,,0.00,WUHU216DAVISVP2,2013-11-22 23:41:00,
2013-11-22 15:46:00,55.1,44.5,29.96,SE,133,4.0,6.0,67,0.00,,,0.00,WUHU216DAVISVP2,2013-11-22 23:46:00,
2013-11-22 15:51:00,55.0,44.4,29.95,SSE,153,4.0,6.0,67,0.00,,,0.00,WUHU216DAVISVP2,2013-11-22 23:51:00,
2013-11-22 15:56:00,54.8,44.6,29.95,SSE,153,2.0,6.0,68,0.00,,,0.00,WUHU216DAVISVP2,2013-11-22 23:56:00,
2013-11-22 16:01:00,54.8,44.9,29.95,SSE,153,4.0,6.0,69,0.00,,,0.00,WUHU216DAVISVP2,2013-11-23 00:01:00,
2013-11-22 16:06:00,54.7,45.2,29.95,SSE,153,0.0,5.0,70,0.00,,,0.00,WUHU216DAVISVP2,2013-11-23 00:06:00,
2013-11-22 16:11:00,54.7,45.2,29.95,SSE,153,0.0,4.0,70,0.00,,,0.00,WUHU216DAVISVP2,2013-11-23 00:11:00,
2013-11-22 16:16:00,54.7,45.2,29.95,SSE,153,0.0,1.0,70,0.00,,,0.00,WUHU216DAVISVP2,2013-11-23 00:16:00,
2013-11-22 16:21:00,54.6,45.5,29.95,SSE,153,0.0,0.0,71,0.00,,,0.00,WUHU216DAVISVP2,2013-11-23 00:21:00,
2013-11-22 16:26:00,54.6,45.9,29.95,SSE,153,0.0,1.0,72,0.00,,,0.00,WUHU216DAVISVP2,2013-11-23 00:26:00,
2013-11-22 16:31:00,54.6,45.9,29.95,SSE,153,0.0,1.0,72,0.00,,,0.00,WUHU216DAVISVP2,2013-11-23 00:31:00,
2013-11-22 16:36:00,54.5,46.1,29.94,SSE,153,0.0,0.0,73,0.00,,,0.00,WUHU216DAVISVP2,2013-11-23 00:36:00,
2013-11-22 16:41:00,54.4,46.0,29.94,SSE,153,0.0,0.0,73,0.00,,,0.00,WUHU216DAVISVP2,2013-11-23 00:41:00,
2013-11-22 16:46:00,54.3,45.9,29.94,SSE,153,0.0,0.0,73,0.00,,,0.00,WUHU216DAVISVP2,2013-11-23 00:46:00,
2013-11-22 16:51:00,54.2,45.8,29.94,SSE,153,0.0,0.0,73,0.00,,,0.00,WUHU216DAVISVP2,2013-11-23 00:51:00,
2013-11-22 16:56:00,54.2,46.2,29.94,SSE,153,0.0,0.0,74,0.00,,,0.00,WUHU216DAVISVP2,2013-11-23 00:56:00,
2013-11-22 17:01:00,54.0,46.3,29.95,SSE,153,0.0,0.0,75,0.00,,,0.00,WUHU216DAVISVP2,2013-11-23 01:01:00,
2013-11-22 17:06:00,53.9,46.2,29.94,SSE,153,0.0,0.0,75,0.00,,,0.00,WUHU216DAVISVP2,2013-11-23 01:06:00,
2013-11-22 17:11:00,53.6,46.3,29.95,SSE,153,0.0,0.0,76,0.00,,,0.00,WUHU216DAVISVP2,2013-11-23 01:11:00,
2013-11-22 17:16:00,53.5,46.2,29.95,SSE,153,0.0,0.0,76,0.00,,,0.00,WUHU216DAVISVP2,2013-11-23 01:16:00,
2013-11-22 17:21:00,53.3,46.0,29.95,SSE,153,0.0,0.0,76,0.00,,,0.00,WUHU216DAVISVP2,2013-11-23 01:21:00,
2013-11-22 17:26:00,53.1,46.1,29.95,SSE,153,0.0,0.0,77,0.00,,,0.00,WUHU216DAVISVP2,2013-11-23 01:26:00,
2013-11-22 17:31:00,52.9,46.0,29.95,SSE,153,0.0,0.0,77,0.00,,,0.00,WUHU216DAVISVP2,2013-11-23 01:31:00,
2013-11-22 17:36:00,52.6,46.0,29.95,SSE,153,0.0,0.0,78,0.00,,,0.00,WUHU216DAVISVP2,2013-11-23 01:36:00,
2013-11-22 17:41:00,52.3,46.0,29.95,SSE,153,0.0,0.0,79,0.00,,,0.00,WUHU216DAVISVP2,2013-11-23 01:41:00,
2013-11-22 17:46:00,52.1,45.8,29.95,SSE,153,0.0,0.0,79,0.00,,,0.00,WUHU216DAVISVP2,2013-11-23 01:46:00,
2013-11-22 17:51:00,51.9,45.6,29.95,SSE,153,0.0,0.0,79,0.00,,,0.00,WUHU216DAVISVP2,2013-11-23 01:51:00,
2013-11-22 17:56:00,51.7,45.8,29.95,SSE,153,0.0,0.0,80,0.00,,,0.00,WUHU216DAVISVP2,2013-11-23 01:56:00,
2013-11-22 18:01:00,51.4,45.5,29.95,SSE,153,0.0,0.0,80,0.00,,,0.00,WUHU216DAVISVP2,2013-11-23 02:01:00,
2013-11-22 18:06:00,51.2,45.6,29.95,SSE,153,0.0,0.0,81,0.00,,,0.00,WUHU216DAVISVP2,2013-11-23 02:06:00,
2013-11-22 18:11:00,51.0,45.4,29.95,SSE,153,0.0,0.0,81,0.00,,,0.00,WUHU216DAVISVP2,2013-11-23 02:11:00,
2013-11-22 18:16:00,50.9,45.6,29.96,SSE,153,0.0,0.0,82,0.00,,,0.00,WUHU216DAVISVP2,2013-11-23 02:16:00,
2013-11-22 18:21:00,50.7,45.4,29.96,SSE,153,0.0,0.0,82,0.00,,,0.00,WUHU216DAVISVP2,2013-11-23 02:21:00,
2013-11-22 18:26:00,50.5,45.2,29.96,SSE,153,0.0,0.0,82,0.00,,,0.00,WUHU216DAVISVP2,2013-11-23 02:26:00,
2013-11-22 18:31:00,50.3,45.0,29.95,SSE,153,0.0,0.0,82,0.00,,,0.00,WUHU216DAVISVP2,2013-11-23 02:31:00,
2013-11-22 18:36:00,50.2,44.9,29.96,SSE,153,0.0,0.0,82,0.00,,,0.00,WUHU216DAVISVP2,2013-11-23 02:36:00,
2013-11-22 18:41:00,50.0,45.0,29.96,SSE,153,1.0,4.0,83,0.00,,,0.00,WUHU216DAVISVP2,2013-11-23 02:41:00,
2013-11-22 18:46:00,49.9,45.3,29.96,SSE,153,0.0,4.0,84,0.00,,,0.00,WUHU216DAVISVP2,2013-11-23 02:46:00,
2013-11-22 18:51:00,49.8,45.5,29.96,SSE,153,0.0,4.0,85,0.00,,,0.00,WUHU216DAVISVP2,2013-11-23 02:51:00,
2013-11-22 18:56:00,49.8,45.5,29.96,SSE,153,0.0,2.0,85,0.00,,,0.00,WUHU216DAVISVP2,2013-11-23 02:56:00,
2013-11-22 19:01:00,49.7,45.4,29.96,SSE,153,0.0,4.0,85,0.00,,,0.00,WUHU216DAVISVP2,2013-11-23 03:01:00,
2013-11-22 19:06:00,49.8,45.8,29.97,SSE,153,1.0,5.0,86,0.00,,,0.00,WUHU216DAVISVP2,2013-11-23 03:06:00,
2013-11-22 19:11:00,49.9,45.6,29.97,SSE,153,1.0,5.0,85,0.00,,,0.00,WUHU216DAVISVP2,2013-11-23 03:11:00,
2013-11-22 19:16:00,50.0,46.0,29.97,SSE,153,0.0,5.0,86,0.00,,,0.00,WUHU216DAVISVP2,2013-11-23 03:16:00,
2013-11-22 19:21:00,50.2,45.9,29.97,SSE,153,0.0,4.0,85,0.00,,,0.00,WUHU216DAVISVP2,2013-11-23 03:21:00,
2013-11-22 19:26:00,50.2,45.9,29.97,SSE,153,0.0,2.0,85,0.00,,,0.00,WUHU216DAVISVP2,2013-11-23 03:26:00,
2013-11-22 19:31:00,50.4,46.1,29.96,SSE,153,0.0,0.0,85,0.00,,,0.00,WUHU216DAVISVP2,2013-11-23 03:31:00,
2013-11-22 19:36:00,50.4,46.1,29.97,SSE,153,0.0,0.0,85,0.00,,,0.00,WUHU216DAVISVP2,2013-11-23 03:36:00,
2013-11-22 19:41:00,50.5,46.2,29.97,SSE,153,0.0,0.0,85,0.00,,,0.00,WUHU216DAVISVP2,2013-11-23 03:41:00,
2013-11-22 19:46:00,50.5,46.2,29.97,SSE,153,0.0,0.0,85,0.00,,,0.00,WUHU216DAVISVP2,2013-11-23 03:46:00,
2013-11-22 19:51:00,50.6,46.3,29.98,SSE,153,0.0,2.0,85,0.00,,,0.00,WUHU216DAVISVP2,2013-11-23 03:51:00,
2013-11-22 19:56:00,50.5,46.2,29.98,SSE,153,0.0,2.0,85,0.00,,,0.00,WUHU216DAVISVP2,2013-11-23 03:56:00,
2013-11-22 20:01:00,50.5,46.2,29.98,SSE,153,2.0,2.0,85,0.00,,,0.00,WUHU216DAVISVP2,2013-11-23 04:01:00,
2013-11-22 20:06:00,50.4,46.1,29.98,SSE,153,0.0,4.0,85,0.00,,,0.00,WUHU216DAVISVP2,2013-11-23 04:06:00,
2013-11-22 20:11:00,50.3,46.0,29.98,SSE,153,0.0,5.0,85,0.00,,,0.00,WUHU216DAVISVP2,2013-11-23 04:11:00,
2013-11-22 20:16:00,50.3,46.0,29.98,SSE,153,0.0,5.0,85,0.00,,,0.00,WUHU216DAVISVP2,2013-11-23 04:16:00,
2013-11-22 20:21:00,50.3,46.3,29.98,SSE,153,0.0,2.0,86,0.00,,,0.00,WUHU216DAVISVP2,2013-11-23 04:21:00,
2013-11-22 20:26:00,50.3,46.3,29.98,SSE,153,0.0,2.0,86,0.00,,,0.00,WUHU216DAVISVP2,2013-11-23 04:26:00,
2013-11-22 20:31:00,50.3,46.3,29.98,SSE,153,0.0,2.0,86,0.00,,,0.00,WUHU216DAVISVP2,2013-11-23 04:31:00,
2013-11-22 20:36:00,50.2,46.2,29.99,SSE,153,2.0,2.0,86,0.00,,,0.00,WUHU216DAVISVP2,2013-11-23 04:36:00,
2013-11-22 20:41:00,50.2,46.2,29.98,SSE,153,2.0,4.0,86,0.00,,,0.00,WUHU216DAVISVP2,2013-11-23 04:41:00,
2013-11-22 20:46:00,50.2,46.2,29.98,SSE,153,0.0,4.0,86,0.00,,,0.00,WUHU216DAVISVP2,2013-11-23 04:46:00,
2013-11-22 20:51:00,50.2,46.5,29.99,SSE,153,0.0,4.0,87,0.00,,,0.00,WUHU216DAVISVP2,2013-11-23 04:51:00,
2013-11-22 20:56:00,50.1,46.4,30.00,SSE,153,0.0,0.0,87,0.00,,,0.00,WUHU216DAVISVP2,2013-11-23 04:56:00,
2013-11-22 21:01:00,50.1,46.4,29.99,SSE,153,0.0,0.0,87,0.00,,,0.00,WUHU216DAVISVP2,2013-11-23 05:01:00,
2013-11-22 21:06:00,50.0,46.3,29.99,SSE,153,0.0,2.0,87,0.00,,,0.00,WUHU216DAVISVP2,2013-11-23 05:06:00,
2013-11-22 21:11:00,50.0,46.3,29.99,SSE,153,0.0,2.0,87,0.00,,,0.00,WUHU216DAVISVP2,2013-11-23 05:11:00,
2013-11-22 21:16:00,49.9,46.2,29.99,SSE,153,0.0,2.0,87,0.00,,,0.00,WUHU216DAVISVP2,2013-11-23 05:16:00,
2013-11-22 21:21:00,49.9,46.5,30.00,SSE,153,0.0,2.0,88,0.00,,,0.00,WUHU216DAVISVP2,2013-11-23 05:21:00,
2013-11-22 21:26:00,49.9,46.5,29.99,SSE,153,0.0,2.0,88,0.00,,,0.00,WUHU216DAVISVP2,2013-11-23 05:26:00,
2013-11-22 21:31:00,49.8,46.4,29.99,SSE,153,0.0,0.0,88,0.00,,,0.00,WUHU216DAVISVP2,2013-11-23 05:31:00,
2013-11-22 21:36:00,49.7,46.3,29.99,SSE,153,0.0,1.0,88,0.00,,,0.00,WUHU216DAVISVP2,2013-11-23 05:36:00,
2013-11-22 21:41:00,49.6,46.2,29.99,SSE,153,0.0,2.0,88,0.00,,,0.00,WUHU216DAVISVP2,2013-11-23 05:41:00,
2013-11-22 21:46:00,49.4,46.0,29.98,SSE,153,0.0,2.0,88,0.00,,,0.00,WUHU216DAVISVP2,2013-11-23 05:46:00,
2013-11-22 21:51:00,49.2,45.8,29.99,SSE,153,0.0,2.0,88,0.00,,,0.00,WUHU216DAVISVP2,2013-11-23 05:51:00,
2013-11-22 21:56:00,49.0,45.6,29.99,SSE,150,0.0,4.0,88,0.00,,,0.00,WUHU216DAVISVP2,2013-11-23 05:56:00,
2013-11-22 22:01:00,48.8,45.4,29.99,SE,137,2.0,4.0,88,0.00,,,0.00,WUHU216DAVISVP2,2013-11-23 06:01:00,
2013-11-22 22:06:00,48.7,45.3,29.99,SE,136,0.0,4.0,88,0.00,,,0.00,WUHU216DAVISVP2,2013-11-23 06:06:00,
2013-11-22 22:11:00,48.5,45.4,29.99,SE,136,1.0,4.0,89,0.00,,,0.00,WUHU216DAVISVP2,2013-11-23 06:11:00,
2013-11-22 22:16:00,48.4,45.3,29.99,SE,136,0.0,2.0,89,0.00,,,0.00,WUHU216DAVISVP2,2013-11-23 06:16:00,
2013-11-22 22:21:00,48.3,45.2,30.00,SE,136,0.0,2.0,89,0.00,,,0.00,WUHU216DAVISVP2,2013-11-23 06:21:00,
2013-11-22 22:26:00,48.1,45.0,30.00,SE,136,0.0,2.0,89,0.00,,,0.00,WUHU216DAVISVP2,2013-11-23 06:26:00,
2013-11-22 22:31:00,47.9,44.8,30.00,SE,130,0.0,2.0,89,0.00,,,0.00,WUHU216DAVISVP2,2013-11-23 06:31:00,
2013-11-22 22:36:00,47.8,45.0,30.00,ESE,113,4.0,4.0,90,0.00,,,0.00,WUHU216DAVISVP2,2013-11-23 06:36:00,
2013-11-22 22:41:00,47.6,44.8,30.00,ESE,103,4.0,5.0,90,0.00,,,0.00,WUHU216DAVISVP2,2013-11-23 06:41:00,
2013-11-22 22:46:00,47.5,44.7,30.00,SE,127,0.0,5.0,90,0.00,,,0.00,WUHU216DAVISVP2,2013-11-23 06:46:00,
2013-11-22 22:51:00,47.3,44.5,30.00,ESE,121,2.0,5.0,90,0.00,,,0.00,WUHU216DAVISVP2,2013-11-23 06:51:00,
2013-11-22 22:56:00,47.2,44.4,30.00,ESE,113,0.0,5.0,90,0.00,,,0.00,WUHU216DAVISVP2,2013-11-23 06:56:00,
2013-11-22 23:01:00,47.1,44.3,30.00,ESE,113,2.0,5.0,90,0.00,,,0.00,WUHU216DAVISVP2,2013-11-23 07:01:00,
2013-11-22 23:06:00,47.0,44.2,30.00,ESE,105,0.0,5.0,90,0.00,,,0.00,WUHU216DAVISVP2,2013-11-23 07:06:00,
2013-11-22 23:11:00,47.0,44.2,30.00,ESE,113,2.0,5.0,90,0.00,,,0.00,WUHU216DAVISVP2,2013-11-23 07:11:00,
2013-11-22 23:16:00,46.9,44.1,30.00,ESE,114,0.0,4.0,90,0.00,,,0.00,WUHU216DAVISVP2,2013-11-23 07:16:00,
2013-11-22 23:21:00,46.9,44.4,30.00,ESE,114,0.0,4.0,91,0.00,,,0.00,WUHU216DAVISVP2,2013-11-23 07:21:00,
2013-11-22 23:26:00,46.9,44.4,30.00,ESE,114,4.0,4.0,91,0.00,,,0.00,WUHU216DAVISVP2,2013-11-23 07:26:00,
2013-11-22 23:31:00,46.9,44.4,30.00,ESE,114,0.0,5.0,91,0.00,,,0.00,WUHU216DAVISVP2,2013-11-23 07:31:00,
2013-11-22 23:36:00,46.9,44.4,30.00,ESE,114,0.0,5.0,91,0.00,,,0.00,WUHU216DAVISVP2,2013-11-23 07:36:00,
2013-11-22 23:41:00,47.0,44.8,30.00,ESE,114,2.0,4.0,92,0.00,,,0.00,WUHU216DAVISVP2,2013-11-23 07:41:00,
2013-11-22 23:46:00,47.0,44.8,30.00,ESE,114,0.0,4.0,92,0.00,,,0.00,WUHU216DAVISVP2,2013-11-23 07:46:00,
2013-11-22 23:51:00,47.1,44.9,30.00,ESE,114,0.0,2.0,92,0.00,,,0.00,WUHU216DAVISVP2,2013-11-23 07:51:00,
2013-11-22 23:56:00,47.1,44.9,30.00,ESE,114,0.0,0.0,92,0.00,,,0.00,WUHU216DAVISVP2,2013-11-23 07:56:00,